sensor_id;sensor_type;location;lat;lon;timestamp;temperature;humidity
10968;DHT22;5536;49.602;10.980;2023-02-15T00:01:55;0.70;99.90
10968;DHT22;5536;49.602;10.980;2023-02-15T00:04:24;0.70;99.90
10968;DHT22;5536;49.602;10.980;2023-02-15T00:07:15;0.70;99.90
10968;DHT22;5536;49.602;10.980;2023-02-15T00:09:42;0.80;99.90
10968;DHT22;5536;49.602;10.980;2023-02-15T00:12:12;0.70;99.90
10968;DHT22;5536;49.602;10.980;2023-02-15T00:14:39;0.70;99.90
10968;DHT22;5536;49.602;10.980;2023-02-15T00:17:07;0.70;99.90
10968;DHT22;5536;49.602;10.980;2023-02-15T00:19:34;0.80;99.90
10968;DHT22;5536;49.602;10.980;2023-02-15T00:22:01;0.70;99.90
10968;DHT22;5536;49.602;10.980;2023-02-15T00:24:28;0.70;99.90
10968;DHT22;5536;49.602;10.980;2023-02-15T00:26:55;0.80;99.90
10968;DHT22;5536;49.602;10.980;2023-02-15T00:29:24;0.70;99.90
10968;DHT22;5536;49.602;10.980;2023-02-15T00:31:51;0.70;99.90
10968;DHT22;5536;49.602;10.980;2023-02-15T00:34:19;0.80;99.90
10968;DHT22;5536;49.602;10.980;2023-02-15T00:36:46;0.80;99.90
10968;DHT22;5536;49.602;10.980;2023-02-15T00:39:14;0.80;99.90
10968;DHT22;5536;49.602;10.980;2023-02-15T00:41:41;0.80;99.90
10968;DHT22;5536;49.602;10.980;2023-02-15T00:44:09;0.70;99.90
10968;DHT22;5536;49.602;10.980;2023-02-15T00:46:37;0.70;99.90
10968;DHT22;5536;49.602;10.980;2023-02-15T00:49:04;0.70;99.90
10968;DHT22;5536;49.602;10.980;2023-02-15T00:51:32;0.80;99.90
10968;DHT22;5536;49.602;10.980;2023-02-15T00:53:59;0.70;99.90
10968;DHT22;5536;49.602;10.980;2023-02-15T00:56:26;0.70;99.90
10968;DHT22;5536;49.602;10.980;2023-02-15T00:58:54;0.60;99.90
10968;DHT22;5536;49.602;10.980;2023-02-15T01:01:21;0.60;99.90
10968;DHT22;5536;49.602;10.980;2023-02-15T01:03:50;0.60;99.90
10968;DHT22;5536;49.602;10.980;2023-02-15T01:06:17;0.60;99.90
10968;DHT22;5536;49.602;10.980;2023-02-15T01:08:45;0.50;99.90
10968;DHT22;5536;49.602;10.980;2023-02-15T01:11:14;0.40;99.90
10968;DHT22;5536;49.602;10.980;2023-02-15T01:13:48;0.40;99.90
10968;DHT22;5536;49.602;10.980;2023-02-15T01:16:15;0.40;99.90
10968;DHT22;5536;49.602;10.980;2023-02-15T01:18:42;0.40;99.90
10968;DHT22;5536;49.602;10.980;2023-02-15T01:21:12;0.50;99.90
10968;DHT22;5536;49.602;10.980;2023-02-15T01:23:40;0.40;99.90
10968;DHT22;5536;49.602;10.980;2023-02-15T01:26:08;0.50;99.90
10968;DHT22;5536;49.602;10.980;2023-02-15T01:28:36;0.50;99.90
10968;DHT22;5536;49.602;10.980;2023-02-15T01:31:07;0.50;99.90
10968;DHT22;5536;49.602;10.980;2023-02-15T01:33:35;0.50;99.90
10968;DHT22;5536;49.602;10.980;2023-02-15T01:36:03;0.50;99.90
10968;DHT22;5536;49.602;10.980;2023-02-15T01:38:32;0.50;99.90
10968;DHT22;5536;49.602;10.980;2023-02-15T01:40:59;0.50;99.90
10968;DHT22;5536;49.602;10.980;2023-02-15T01:43:45;0.50;99.90
10968;DHT22;5536;49.602;10.980;2023-02-15T01:46:13;0.50;99.90
10968;DHT22;5536;49.602;10.980;2023-02-15T01:48:44;0.50;99.90
10968;DHT22;5536;49.602;10.980;2023-02-15T01:51:13;0.50;99.90
10968;DHT22;5536;49.602;10.980;2023-02-15T01:53:45;0.60;99.90
10968;DHT22;5536;49.602;10.980;2023-02-15T01:56:15;0.50;99.90
10968;DHT22;5536;49.602;10.980;2023-02-15T01:58:44;0.50;99.90
10968;DHT22;5536;49.602;10.980;2023-02-15T02:01:12;0.50;99.90
10968;DHT22;5536;49.602;10.980;2023-02-15T02:03:44;0.50;99.90
10968;DHT22;5536;49.602;10.980;2023-02-15T02:06:12;0.50;99.90
10968;DHT22;5536;49.602;10.980;2023-02-15T02:08:41;0.50;99.90
10968;DHT22;5536;49.602;10.980;2023-02-15T02:11:10;0.50;99.90
10968;DHT22;5536;49.602;10.980;2023-02-15T02:13:38;0.40;99.90
10968;DHT22;5536;49.602;10.980;2023-02-15T02:16:09;0.40;99.90
10968;DHT22;5536;49.602;10.980;2023-02-15T02:18:44;0.30;99.90
10968;DHT22;5536;49.602;10.980;2023-02-15T02:21:36;0.30;99.90
10968;DHT22;5536;49.602;10.980;2023-02-15T02:24:51;0.30;99.90
10968;DHT22;5536;49.602;10.980;2023-02-15T02:27:29;0.30;99.90
10968;DHT22;5536;49.602;10.980;2023-02-15T02:33:19;0.30;99.90
10968;DHT22;5536;49.602;10.980;2023-02-15T02:35:56;0.20;99.90
10968;DHT22;5536;49.602;10.980;2023-02-15T02:38:28;0.20;99.90
10968;DHT22;5536;49.602;10.980;2023-02-15T02:41:03;0.20;99.90
10968;DHT22;5536;49.602;10.980;2023-02-15T02:43:36;0.20;99.90
10968;DHT22;5536;49.602;10.980;2023-02-15T02:46:08;0.20;99.90
10968;DHT22;5536;49.602;10.980;2023-02-15T02:48:38;0.20;99.90
10968;DHT22;5536;49.602;10.980;2023-02-15T02:51:05;0.10;99.90
10968;DHT22;5536;49.602;10.980;2023-02-15T02:53:32;0.20;99.90
10968;DHT22;5536;49.602;10.980;2023-02-15T02:56:04;0.20;99.90
10968;DHT22;5536;49.602;10.980;2023-02-15T02:58:38;0.30;99.90
10968;DHT22;5536;49.602;10.980;2023-02-15T03:01:10;0.20;99.90
10968;DHT22;5536;49.602;10.980;2023-02-15T03:03:43;0.20;99.90
10968;DHT22;5536;49.602;10.980;2023-02-15T03:06:12;0.30;99.90
10968;DHT22;5536;49.602;10.980;2023-02-15T03:08:47;0.30;99.90
10968;DHT22;5536;49.602;10.980;2023-02-15T03:11:15;0.30;99.90
10968;DHT22;5536;49.602;10.980;2023-02-15T03:13:43;0.20;99.90
10968;DHT22;5536;49.602;10.980;2023-02-15T03:16:12;0.20;99.90
10968;DHT22;5536;49.602;10.980;2023-02-15T03:18:55;0.20;99.90
10968;DHT22;5536;49.602;10.980;2023-02-15T03:21:31;0.20;99.90
10968;DHT22;5536;49.602;10.980;2023-02-15T03:24:02;0.20;99.90
10968;DHT22;5536;49.602;10.980;2023-02-15T03:26:32;0.20;99.90
10968;DHT22;5536;49.602;10.980;2023-02-15T03:29:01;0.20;99.90
10968;DHT22;5536;49.602;10.980;2023-02-15T03:31:32;0.10;99.90
10968;DHT22;5536;49.602;10.980;2023-02-15T03:34:03;0.20;99.90
10968;DHT22;5536;49.602;10.980;2023-02-15T03:36:37;0.20;99.90
10968;DHT22;5536;49.602;10.980;2023-02-15T03:39:10;0.30;99.90
10968;DHT22;5536;49.602;10.980;2023-02-15T03:41:44;0.20;99.90
10968;DHT22;5536;49.602;10.980;2023-02-15T03:44:14;0.20;99.90
10968;DHT22;5536;49.602;10.980;2023-02-15T03:46:46;0.30;99.90
10968;DHT22;5536;49.602;10.980;2023-02-15T03:49:20;0.30;99.90
10968;DHT22;5536;49.602;10.980;2023-02-15T03:51:51;0.30;99.90
10968;DHT22;5536;49.602;10.980;2023-02-15T03:54:22;0.30;99.90
10968;DHT22;5536;49.602;10.980;2023-02-15T03:57:13;0.30;99.90
10968;DHT22;5536;49.602;10.980;2023-02-15T03:59:57;0.30;99.90
10968;DHT22;5536;49.602;10.980;2023-02-15T04:03:10;0.40;99.90
10968;DHT22;5536;49.602;10.980;2023-02-15T04:05:39;0.40;99.90
10968;DHT22;5536;49.602;10.980;2023-02-15T04:08:07;0.50;99.90
10968;DHT22;5536;49.602;10.980;2023-02-15T04:10:34;0.40;99.90
10968;DHT22;5536;49.602;10.980;2023-02-15T04:13:21;0.40;99.90
10968;DHT22;5536;49.602;10.980;2023-02-15T04:15:48;0.30;99.90
10968;DHT22;5536;49.602;10.980;2023-02-15T04:18:31;0.40;99.90
10968;DHT22;5536;49.602;10.980;2023-02-15T04:21:17;0.50;99.90
10968;DHT22;5536;49.602;10.980;2023-02-15T04:24:02;0.40;99.90
10968;DHT22;5536;49.602;10.980;2023-02-15T04:26:46;0.50;99.90
10968;DHT22;5536;49.602;10.980;2023-02-15T04:29:14;0.50;99.90
10968;DHT22;5536;49.602;10.980;2023-02-15T04:31:41;0.40;99.90
10968;DHT22;5536;49.602;10.980;2023-02-15T04:34:09;0.50;99.90
10968;DHT22;5536;49.602;10.980;2023-02-15T04:36:38;0.40;99.90
10968;DHT22;5536;49.602;10.980;2023-02-15T04:39:05;0.50;99.90
10968;DHT22;5536;49.602;10.980;2023-02-15T04:41:33;0.50;99.90
10968;DHT22;5536;49.602;10.980;2023-02-15T04:44:01;0.40;99.90
10968;DHT22;5536;49.602;10.980;2023-02-15T04:46:28;0.30;99.90
10968;DHT22;5536;49.602;10.980;2023-02-15T04:48:55;0.30;99.90
10968;DHT22;5536;49.602;10.980;2023-02-15T04:51:22;0.20;99.90
10968;DHT22;5536;49.602;10.980;2023-02-15T04:53:50;0.20;99.90
10968;DHT22;5536;49.602;10.980;2023-02-15T04:56:18;0.30;99.90
10968;DHT22;5536;49.602;10.980;2023-02-15T04:58:45;0.30;99.90
10968;DHT22;5536;49.602;10.980;2023-02-15T05:01:12;0.30;99.90
10968;DHT22;5536;49.602;10.980;2023-02-15T05:03:39;0.30;99.90
10968;DHT22;5536;49.602;10.980;2023-02-15T05:06:07;0.30;99.90
10968;DHT22;5536;49.602;10.980;2023-02-15T05:08:34;0.20;99.90
10968;DHT22;5536;49.602;10.980;2023-02-15T05:11:02;0.10;99.90
10968;DHT22;5536;49.602;10.980;2023-02-15T05:13:29;0.00;99.90
10968;DHT22;5536;49.602;10.980;2023-02-15T05:15:56;0.00;99.90
10968;DHT22;5536;49.602;10.980;2023-02-15T05:18:22;0.00;99.90
10968;DHT22;5536;49.602;10.980;2023-02-15T05:20:49;0.00;99.90
10968;DHT22;5536;49.602;10.980;2023-02-15T05:23:16;0.10;99.90
10968;DHT22;5536;49.602;10.980;2023-02-15T05:25:47;0.00;99.90
10968;DHT22;5536;49.602;10.980;2023-02-15T05:28:34;0.00;99.90
10968;DHT22;5536;49.602;10.980;2023-02-15T05:31:03;0.00;99.90
10968;DHT22;5536;49.602;10.980;2023-02-15T05:33:30;0.00;99.90
10968;DHT22;5536;49.602;10.980;2023-02-15T05:35:58;0.00;99.90
10968;DHT22;5536;49.602;10.980;2023-02-15T05:38:25;0.00;99.90
10968;DHT22;5536;49.602;10.980;2023-02-15T05:40:52;0.00;99.90
10968;DHT22;5536;49.602;10.980;2023-02-15T05:43:19;0.00;99.90
10968;DHT22;5536;49.602;10.980;2023-02-15T05:45:48;0.00;99.90
10968;DHT22;5536;49.602;10.980;2023-02-15T05:48:15;0.10;99.90
10968;DHT22;5536;49.602;10.980;2023-02-15T05:50:42;0.10;99.90
10968;DHT22;5536;49.602;10.980;2023-02-15T05:53:09;0.10;99.90
10968;DHT22;5536;49.602;10.980;2023-02-15T05:55:37;0.10;99.90
10968;DHT22;5536;49.602;10.980;2023-02-15T05:58:05;0.00;99.90
10968;DHT22;5536;49.602;10.980;2023-02-15T06:00:32;0.00;99.90
10968;DHT22;5536;49.602;10.980;2023-02-15T06:03:00;0.00;99.90
10968;DHT22;5536;49.602;10.980;2023-02-15T06:05:27;0.00;99.90
10968;DHT22;5536;49.602;10.980;2023-02-15T06:07:55;-0.10;99.90
10968;DHT22;5536;49.602;10.980;2023-02-15T06:10:22;-0.10;99.90
10968;DHT22;5536;49.602;10.980;2023-02-15T06:12:49;-0.20;99.90
10968;DHT22;5536;49.602;10.980;2023-02-15T06:15:16;-0.20;99.90
10968;DHT22;5536;49.602;10.980;2023-02-15T06:17:43;-0.20;99.90
10968;DHT22;5536;49.602;10.980;2023-02-15T06:20:12;-0.20;99.90
10968;DHT22;5536;49.602;10.980;2023-02-15T06:22:39;-0.30;99.90
10968;DHT22;5536;49.602;10.980;2023-02-15T06:25:06;-0.30;99.90
10968;DHT22;5536;49.602;10.980;2023-02-15T06:27:35;-0.30;99.90
10968;DHT22;5536;49.602;10.980;2023-02-15T06:30:03;-0.30;99.90
10968;DHT22;5536;49.602;10.980;2023-02-15T06:32:31;-0.30;99.90
10968;DHT22;5536;49.602;10.980;2023-02-15T06:34:58;-0.30;99.90
10968;DHT22;5536;49.602;10.980;2023-02-15T06:37:26;-0.30;99.90
10968;DHT22;5536;49.602;10.980;2023-02-15T06:39:53;-0.30;99.90
10968;DHT22;5536;49.602;10.980;2023-02-15T06:42:21;-0.20;99.90
10968;DHT22;5536;49.602;10.980;2023-02-15T06:44:48;-0.20;99.90
10968;DHT22;5536;49.602;10.980;2023-02-15T06:47:15;-0.20;99.90
10968;DHT22;5536;49.602;10.980;2023-02-15T06:49:42;-0.30;99.90
10968;DHT22;5536;49.602;10.980;2023-02-15T06:52:08;-0.30;99.90
10968;DHT22;5536;49.602;10.980;2023-02-15T06:54:37;-0.20;99.90
10968;DHT22;5536;49.602;10.980;2023-02-15T06:57:04;-0.20;99.90
10968;DHT22;5536;49.602;10.980;2023-02-15T06:59:30;-0.20;99.90
10968;DHT22;5536;49.602;10.980;2023-02-15T07:01:57;-0.20;99.90
10968;DHT22;5536;49.602;10.980;2023-02-15T07:04:24;-0.20;99.90
10968;DHT22;5536;49.602;10.980;2023-02-15T07:06:54;-0.30;99.90
10968;DHT22;5536;49.602;10.980;2023-02-15T07:09:21;-0.30;99.90
10968;DHT22;5536;49.602;10.980;2023-02-15T07:11:49;-0.30;99.90
10968;DHT22;5536;49.602;10.980;2023-02-15T07:14:34;-0.30;99.90
10968;DHT22;5536;49.602;10.980;2023-02-15T07:17:00;-0.20;99.90
10968;DHT22;5536;49.602;10.980;2023-02-15T07:19:27;-0.30;99.90
10968;DHT22;5536;49.602;10.980;2023-02-15T07:21:54;-0.20;99.90
10968;DHT22;5536;49.602;10.980;2023-02-15T07:24:21;-0.30;99.90
10968;DHT22;5536;49.602;10.980;2023-02-15T07:26:50;-0.10;99.90
10968;DHT22;5536;49.602;10.980;2023-02-15T07:29:17;-0.20;99.90
10968;DHT22;5536;49.602;10.980;2023-02-15T07:31:44;-0.10;99.90
10968;DHT22;5536;49.602;10.980;2023-02-15T07:34:11;-0.10;99.90
10968;DHT22;5536;49.602;10.980;2023-02-15T07:36:38;-0.10;99.90
10968;DHT22;5536;49.602;10.980;2023-02-15T07:39:05;-0.30;99.90
10968;DHT22;5536;49.602;10.980;2023-02-15T07:41:32;-0.20;99.90
10968;DHT22;5536;49.602;10.980;2023-02-15T07:44:00;-0.30;99.90
10968;DHT22;5536;49.602;10.980;2023-02-15T07:46:27;-0.20;99.90
10968;DHT22;5536;49.602;10.980;2023-02-15T07:48:55;-0.20;99.90
10968;DHT22;5536;49.602;10.980;2023-02-15T07:51:22;-0.20;99.90
10968;DHT22;5536;49.602;10.980;2023-02-15T07:53:49;-0.20;99.90
10968;DHT22;5536;49.602;10.980;2023-02-15T07:56:17;-0.20;99.90
10968;DHT22;5536;49.602;10.980;2023-02-15T07:58:44;-0.30;99.90
10968;DHT22;5536;49.602;10.980;2023-02-15T08:01:19;-0.20;99.90
10968;DHT22;5536;49.602;10.980;2023-02-15T08:03:46;-0.30;99.90
10968;DHT22;5536;49.602;10.980;2023-02-15T08:06:13;-0.20;99.90
10968;DHT22;5536;49.602;10.980;2023-02-15T08:08:40;-0.30;99.90
10968;DHT22;5536;49.602;10.980;2023-02-15T08:11:15;-0.40;99.90
10968;DHT22;5536;49.602;10.980;2023-02-15T08:14:05;-0.30;99.90
10968;DHT22;5536;49.602;10.980;2023-02-15T08:16:36;-0.20;99.90
10968;DHT22;5536;49.602;10.980;2023-02-15T08:19:05;-0.10;99.90
10968;DHT22;5536;49.602;10.980;2023-02-15T08:21:33;-0.10;99.90
10968;DHT22;5536;49.602;10.980;2023-02-15T08:24:01;0.10;99.90
10968;DHT22;5536;49.602;10.980;2023-02-15T08:26:29;0.10;99.90
10968;DHT22;5536;49.602;10.980;2023-02-15T08:28:57;0.10;99.90
10968;DHT22;5536;49.602;10.980;2023-02-15T08:31:24;0.00;99.90
10968;DHT22;5536;49.602;10.980;2023-02-15T08:33:53;0.00;99.90
10968;DHT22;5536;49.602;10.980;2023-02-15T08:36:22;0.10;99.90
10968;DHT22;5536;49.602;10.980;2023-02-15T08:38:49;0.10;99.90
10968;DHT22;5536;49.602;10.980;2023-02-15T08:41:17;0.20;99.90
10968;DHT22;5536;49.602;10.980;2023-02-15T08:43:46;0.20;99.90
10968;DHT22;5536;49.602;10.980;2023-02-15T08:46:14;0.20;99.90
10968;DHT22;5536;49.602;10.980;2023-02-15T08:48:42;0.00;99.90
10968;DHT22;5536;49.602;10.980;2023-02-15T08:51:13;0.10;99.90
10968;DHT22;5536;49.602;10.980;2023-02-15T08:53:41;0.00;99.90
10968;DHT22;5536;49.602;10.980;2023-02-15T08:56:08;-0.10;99.90
10968;DHT22;5536;49.602;10.980;2023-02-15T08:58:35;0.00;99.90
10968;DHT22;5536;49.602;10.980;2023-02-15T09:01:09;0.00;99.90
10968;DHT22;5536;49.602;10.980;2023-02-15T09:03:36;0.00;99.90
10968;DHT22;5536;49.602;10.980;2023-02-15T09:06:03;0.10;99.90
10968;DHT22;5536;49.602;10.980;2023-02-15T09:08:31;0.10;99.90
10968;DHT22;5536;49.602;10.980;2023-02-15T09:11:07;0.20;99.90
10968;DHT22;5536;49.602;10.980;2023-02-15T09:13:35;0.30;99.90
10968;DHT22;5536;49.602;10.980;2023-02-15T09:16:02;0.30;99.90
10968;DHT22;5536;49.602;10.980;2023-02-15T09:18:31;0.30;99.90
10968;DHT22;5536;49.602;10.980;2023-02-15T09:21:04;0.30;99.90
10968;DHT22;5536;49.602;10.980;2023-02-15T09:23:32;0.30;99.90
10968;DHT22;5536;49.602;10.980;2023-02-15T09:26:03;0.40;99.90
10968;DHT22;5536;49.602;10.980;2023-02-15T09:28:30;0.50;99.90
10968;DHT22;5536;49.602;10.980;2023-02-15T09:31:05;0.40;99.90
10968;DHT22;5536;49.602;10.980;2023-02-15T09:33:33;0.40;99.90
10968;DHT22;5536;49.602;10.980;2023-02-15T09:36:00;0.50;99.90
10968;DHT22;5536;49.602;10.980;2023-02-15T09:38:27;0.40;99.90
10968;DHT22;5536;49.602;10.980;2023-02-15T09:41:08;0.50;99.90
10968;DHT22;5536;49.602;10.980;2023-02-15T09:43:42;0.60;99.90
10968;DHT22;5536;49.602;10.980;2023-02-15T09:46:28;0.70;99.90
10968;DHT22;5536;49.602;10.980;2023-02-15T09:49:02;0.70;99.90
10968;DHT22;5536;49.602;10.980;2023-02-15T09:51:57;0.70;99.90
10968;DHT22;5536;49.602;10.980;2023-02-15T09:54:44;0.70;99.90
10968;DHT22;5536;49.602;10.980;2023-02-15T09:57:21;0.80;99.90
10968;DHT22;5536;49.602;10.980;2023-02-15T09:59:58;0.80;99.90
10968;DHT22;5536;49.602;10.980;2023-02-15T10:02:40;1.00;99.90
10968;DHT22;5536;49.602;10.980;2023-02-15T10:05:19;1.00;99.90
10968;DHT22;5536;49.602;10.980;2023-02-15T10:10:43;1.10;99.90
10968;DHT22;5536;49.602;10.980;2023-02-15T10:13:24;1.20;99.90
10968;DHT22;5536;49.602;10.980;2023-02-15T10:16:13;1.10;99.90
10968;DHT22;5536;49.602;10.980;2023-02-15T10:18:55;1.00;99.90
10968;DHT22;5536;49.602;10.980;2023-02-15T10:21:39;1.20;99.90
10968;DHT22;5536;49.602;10.980;2023-02-15T10:24:28;1.30;99.90
10968;DHT22;5536;49.602;10.980;2023-02-15T10:27:02;1.30;99.90
10968;DHT22;5536;49.602;10.980;2023-02-15T10:29:35;1.30;99.90
10968;DHT22;5536;49.602;10.980;2023-02-15T10:32:13;1.40;99.90
10968;DHT22;5536;49.602;10.980;2023-02-15T10:34:47;1.40;99.90
10968;DHT22;5536;49.602;10.980;2023-02-15T10:37:44;1.40;99.90
10968;DHT22;5536;49.602;10.980;2023-02-15T10:40:20;1.50;99.90
10968;DHT22;5536;49.602;10.980;2023-02-15T10:43:06;1.70;99.90
10968;DHT22;5536;49.602;10.980;2023-02-15T10:45:48;1.80;99.90
10968;DHT22;5536;49.602;10.980;2023-02-15T10:48:38;1.90;99.90
10968;DHT22;5536;49.602;10.980;2023-02-15T10:51:11;2.00;99.90
10968;DHT22;5536;49.602;10.980;2023-02-15T10:54:02;2.10;99.90
10968;DHT22;5536;49.602;10.980;2023-02-15T10:56:38;2.10;99.90
10968;DHT22;5536;49.602;10.980;2023-02-15T10:59:27;2.20;99.90
10968;DHT22;5536;49.602;10.980;2023-02-15T11:02:04;2.50;99.90
10968;DHT22;5536;49.602;10.980;2023-02-15T11:04:48;2.30;99.90
10968;DHT22;5536;49.602;10.980;2023-02-15T11:07:21;2.20;99.90
10968;DHT22;5536;49.602;10.980;2023-02-15T11:09:53;2.40;99.90
10968;DHT22;5536;49.602;10.980;2023-02-15T11:12:24;2.30;99.90
10968;DHT22;5536;49.602;10.980;2023-02-15T11:14:57;2.10;99.90
10968;DHT22;5536;49.602;10.980;2023-02-15T11:17:30;2.40;99.90
10968;DHT22;5536;49.602;10.980;2023-02-15T11:20:04;2.40;99.90
10968;DHT22;5536;49.602;10.980;2023-02-15T11:22:35;2.40;99.90
10968;DHT22;5536;49.602;10.980;2023-02-15T11:25:14;2.50;99.90
10968;DHT22;5536;49.602;10.980;2023-02-15T11:27:43;2.50;99.90
10968;DHT22;5536;49.602;10.980;2023-02-15T11:32:45;2.70;99.90
10968;DHT22;5536;49.602;10.980;2023-02-15T11:35:21;2.80;99.90
10968;DHT22;5536;49.602;10.980;2023-02-15T11:37:53;3.10;99.90
10968;DHT22;5536;49.602;10.980;2023-02-15T11:40:23;3.20;99.90
10968;DHT22;5536;49.602;10.980;2023-02-15T11:42:54;3.20;99.90
10968;DHT22;5536;49.602;10.980;2023-02-15T11:45:26;3.00;99.90
10968;DHT22;5536;49.602;10.980;2023-02-15T11:47:56;3.00;99.90
10968;DHT22;5536;49.602;10.980;2023-02-15T11:50:25;3.10;99.90
10968;DHT22;5536;49.602;10.980;2023-02-15T11:52:55;3.40;99.90
10968;DHT22;5536;49.602;10.980;2023-02-15T11:55:23;3.50;99.90
10968;DHT22;5536;49.602;10.980;2023-02-15T11:57:54;3.70;99.90
10968;DHT22;5536;49.602;10.980;2023-02-15T12:00:31;4.30;99.90
10968;DHT22;5536;49.602;10.980;2023-02-15T12:03:07;5.20;99.90
10968;DHT22;5536;49.602;10.980;2023-02-15T12:05:37;5.10;99.90
10968;DHT22;5536;49.602;10.980;2023-02-15T12:08:12;4.10;99.90
10968;DHT22;5536;49.602;10.980;2023-02-15T12:10:46;3.90;99.90
10968;DHT22;5536;49.602;10.980;2023-02-15T12:13:19;4.40;99.90
10968;DHT22;5536;49.602;10.980;2023-02-15T12:15:47;5.20;99.90
10968;DHT22;5536;49.602;10.980;2023-02-15T12:18:27;6.10;99.90
10968;DHT22;5536;49.602;10.980;2023-02-15T12:20:59;6.90;99.90
10968;DHT22;5536;49.602;10.980;2023-02-15T12:23:28;6.60;99.90
10968;DHT22;5536;49.602;10.980;2023-02-15T12:25:56;6.40;99.90
10968;DHT22;5536;49.602;10.980;2023-02-15T12:28:26;6.80;99.90
10968;DHT22;5536;49.602;10.980;2023-02-15T12:30:56;6.50;99.90
10968;DHT22;5536;49.602;10.980;2023-02-15T12:33:29;6.80;99.90
10968;DHT22;5536;49.602;10.980;2023-02-15T12:36:00;6.90;99.90
10968;DHT22;5536;49.602;10.980;2023-02-15T12:38:28;7.10;99.90
10968;DHT22;5536;49.602;10.980;2023-02-15T12:41:02;7.30;99.90
10968;DHT22;5536;49.602;10.980;2023-02-15T12:43:32;7.50;99.90
10968;DHT22;5536;49.602;10.980;2023-02-15T12:46:24;7.70;99.90
10968;DHT22;5536;49.602;10.980;2023-02-15T12:49:14;7.80;99.90
10968;DHT22;5536;49.602;10.980;2023-02-15T12:51:45;7.50;99.90
10968;DHT22;5536;49.602;10.980;2023-02-15T12:54:32;7.90;99.90
10968;DHT22;5536;49.602;10.980;2023-02-15T12:57:13;7.70;99.90
10968;DHT22;5536;49.602;10.980;2023-02-15T12:59:48;7.90;99.90
10968;DHT22;5536;49.602;10.980;2023-02-15T13:02:24;8.10;99.90
10968;DHT22;5536;49.602;10.980;2023-02-15T13:04:54;8.40;99.90
10968;DHT22;5536;49.602;10.980;2023-02-15T13:07:24;8.60;99.90
10968;DHT22;5536;49.602;10.980;2023-02-15T13:09:52;9.00;99.90
10968;DHT22;5536;49.602;10.980;2023-02-15T13:12:21;9.00;99.90
10968;DHT22;5536;49.602;10.980;2023-02-15T13:14:53;9.20;99.90
10968;DHT22;5536;49.602;10.980;2023-02-15T13:17:25;9.30;99.90
10968;DHT22;5536;49.602;10.980;2023-02-15T13:19:59;9.00;99.90
10968;DHT22;5536;49.602;10.980;2023-02-15T13:22:33;8.60;99.90
10968;DHT22;5536;49.602;10.980;2023-02-15T13:25:04;8.40;99.90
10968;DHT22;5536;49.602;10.980;2023-02-15T13:27:38;8.20;99.90
10968;DHT22;5536;49.602;10.980;2023-02-15T13:30:16;8.90;99.90
10968;DHT22;5536;49.602;10.980;2023-02-15T13:32:46;8.80;99.90
10968;DHT22;5536;49.602;10.980;2023-02-15T13:35:17;9.20;99.90
10968;DHT22;5536;49.602;10.980;2023-02-15T13:37:57;9.30;99.90
10968;DHT22;5536;49.602;10.980;2023-02-15T13:40:31;10.00;99.90
10968;DHT22;5536;49.602;10.980;2023-02-15T13:43:05;10.00;99.90
10968;DHT22;5536;49.602;10.980;2023-02-15T13:45:52;10.30;99.90
10968;DHT22;5536;49.602;10.980;2023-02-15T13:48:28;9.90;99.90
10968;DHT22;5536;49.602;10.980;2023-02-15T13:51:07;10.50;99.90
10968;DHT22;5536;49.602;10.980;2023-02-15T13:53:48;9.70;99.90
10968;DHT22;5536;49.602;10.980;2023-02-15T13:56:24;9.60;99.90
10968;DHT22;5536;49.602;10.980;2023-02-15T13:59:16;9.40;99.90
10968;DHT22;5536;49.602;10.980;2023-02-15T14:01:53;9.10;99.90
10968;DHT22;5536;49.602;10.980;2023-02-15T14:04:47;9.40;99.90
10968;DHT22;5536;49.602;10.980;2023-02-15T14:07:39;8.90;99.90
10968;DHT22;5536;49.602;10.980;2023-02-15T14:10:24;8.00;99.90
10968;DHT22;5536;49.602;10.980;2023-02-15T14:13:05;6.90;99.90
10968;DHT22;5536;49.602;10.980;2023-02-15T14:15:41;6.40;99.90
10968;DHT22;5536;49.602;10.980;2023-02-15T14:18:19;5.90;99.90
10968;DHT22;5536;49.602;10.980;2023-02-15T14:20:57;5.60;99.90
10968;DHT22;5536;49.602;10.980;2023-02-15T14:23:37;5.60;99.90
10968;DHT22;5536;49.602;10.980;2023-02-15T14:26:11;5.50;99.90
10968;DHT22;5536;49.602;10.980;2023-02-15T14:28:46;5.20;99.90
10968;DHT22;5536;49.602;10.980;2023-02-15T14:31:19;5.20;99.90
10968;DHT22;5536;49.602;10.980;2023-02-15T14:33:54;5.20;99.90
10968;DHT22;5536;49.602;10.980;2023-02-15T14:36:23;5.10;99.90
10968;DHT22;5536;49.602;10.980;2023-02-15T14:39:07;5.10;99.90
10968;DHT22;5536;49.602;10.980;2023-02-15T14:42:04;5.00;99.90
10968;DHT22;5536;49.602;10.980;2023-02-15T14:44:36;4.90;99.90
10968;DHT22;5536;49.602;10.980;2023-02-15T14:47:09;4.80;99.90
10968;DHT22;5536;49.602;10.980;2023-02-15T14:49:38;4.70;99.90
10968;DHT22;5536;49.602;10.980;2023-02-15T14:52:06;4.80;99.90
10968;DHT22;5536;49.602;10.980;2023-02-15T14:54:56;4.80;99.90
10968;DHT22;5536;49.602;10.980;2023-02-15T14:57:31;4.80;99.90
10968;DHT22;5536;49.602;10.980;2023-02-15T15:00:00;4.90;99.90
10968;DHT22;5536;49.602;10.980;2023-02-15T15:02:43;4.90;99.90
10968;DHT22;5536;49.602;10.980;2023-02-15T15:05:17;5.00;99.90
10968;DHT22;5536;49.602;10.980;2023-02-15T15:07:47;4.80;99.90
10968;DHT22;5536;49.602;10.980;2023-02-15T15:10:44;4.90;99.90
10968;DHT22;5536;49.602;10.980;2023-02-15T15:13:52;4.80;99.90
10968;DHT22;5536;49.602;10.980;2023-02-15T15:16:47;4.80;99.90
10968;DHT22;5536;49.602;10.980;2023-02-15T15:22:32;4.80;99.90
10968;DHT22;5536;49.602;10.980;2023-02-15T15:25:00;4.80;99.90
10968;DHT22;5536;49.602;10.980;2023-02-15T15:27:44;4.70;99.90
10968;DHT22;5536;49.602;10.980;2023-02-15T15:30:48;4.70;99.90
10968;DHT22;5536;49.602;10.980;2023-02-15T15:39:49;4.60;99.90
10968;DHT22;5536;49.602;10.980;2023-02-15T15:42:31;4.60;99.90
10968;DHT22;5536;49.602;10.980;2023-02-15T15:48:32;4.40;99.90
10968;DHT22;5536;49.602;10.980;2023-02-15T15:51:03;4.40;99.90
10968;DHT22;5536;49.602;10.980;2023-02-15T15:53:37;4.30;99.90
10968;DHT22;5536;49.602;10.980;2023-02-15T15:56:10;4.30;99.90
10968;DHT22;5536;49.602;10.980;2023-02-15T15:58:42;4.20;99.90
10968;DHT22;5536;49.602;10.980;2023-02-15T16:01:12;4.10;99.90
10968;DHT22;5536;49.602;10.980;2023-02-15T16:03:48;4.10;99.90
10968;DHT22;5536;49.602;10.980;2023-02-15T16:06:27;4.10;99.90
10968;DHT22;5536;49.602;10.980;2023-02-15T16:08:54;4.10;99.90
10968;DHT22;5536;49.602;10.980;2023-02-15T16:11:24;4.10;99.90
10968;DHT22;5536;49.602;10.980;2023-02-15T16:13:52;4.00;99.90
10968;DHT22;5536;49.602;10.980;2023-02-15T16:16:22;4.00;99.90
10968;DHT22;5536;49.602;10.980;2023-02-15T16:18:51;3.90;99.90
10968;DHT22;5536;49.602;10.980;2023-02-15T16:21:20;3.90;99.90
10968;DHT22;5536;49.602;10.980;2023-02-15T16:24:13;3.80;99.90
10968;DHT22;5536;49.602;10.980;2023-02-15T16:27:07;3.70;99.90
10968;DHT22;5536;49.602;10.980;2023-02-15T16:29:37;3.60;99.90
10968;DHT22;5536;49.602;10.980;2023-02-15T16:32:14;3.60;99.90
10968;DHT22;5536;49.602;10.980;2023-02-15T16:34:51;3.60;99.90
10968;DHT22;5536;49.602;10.980;2023-02-15T16:37:19;3.50;99.90
10968;DHT22;5536;49.602;10.980;2023-02-15T16:39:47;3.30;99.90
10968;DHT22;5536;49.602;10.980;2023-02-15T16:42:15;3.20;99.90